createdAt,value
2023-02-02T00:01:52.458Z,13.10
2023-02-02T00:04:25.689Z,12.40
2023-02-02T00:06:54.520Z,12.00
2023-02-02T00:09:23.347Z,12.30
2023-02-02T00:11:51.791Z,13.10
2023-02-02T00:14:20.486Z,14.00
2023-02-02T00:16:50.415Z,12.70
2023-02-02T00:19:21.614Z,13.30
2023-02-02T00:21:50.037Z,13.50
2023-02-02T00:24:19.261Z,14.00
2023-02-02T00:26:50.036Z,13.60
2023-02-02T00:29:21.107Z,11.80
2023-02-02T00:31:49.815Z,13.90
2023-02-02T00:34:19.409Z,12.00
2023-02-02T00:36:48.931Z,11.10
2023-02-02T00:39:22.898Z,14.00
2023-02-02T00:41:51.588Z,11.40
2023-02-02T00:44:41.684Z,10.10
2023-02-02T00:47:10.316Z,12.60
2023-02-02T00:49:38.813Z,12.10
2023-02-02T00:52:07.852Z,12.00
2023-02-02T00:54:38.075Z,12.80
2023-02-02T00:57:06.847Z,9.80
2023-02-02T00:59:35.845Z,9.90
2023-02-02T01:02:04.360Z,12.10
2023-02-02T01:04:33.707Z,9.40
2023-02-02T01:07:02.105Z,12.40
2023-02-02T01:09:32.900Z,13.60
2023-02-02T01:12:06.340Z,11.90
2023-02-02T01:14:36.705Z,14.00
2023-02-02T01:17:05.706Z,14.10
2023-02-02T01:19:34.187Z,14.30
2023-02-02T01:22:03.599Z,15.70
2023-02-02T01:24:32.427Z,17.90
2023-02-02T01:27:01.907Z,18.60
2023-02-02T01:29:31.028Z,17.50
2023-02-02T01:31:59.668Z,19.30
2023-02-02T01:34:28.321Z,14.20
2023-02-02T01:36:56.921Z,17.60
2023-02-02T01:39:25.674Z,18.90
2023-02-02T01:41:54.672Z,15.90
2023-02-02T01:45:00.879Z,15.50
2023-02-02T01:47:37.421Z,18.80
2023-02-02T01:50:06.500Z,16.70
2023-02-02T01:52:36.001Z,18.20
2023-02-02T01:55:08.710Z,13.90
2023-02-02T01:57:41.214Z,18.10
2023-02-02T02:00:12.075Z,17.50
2023-02-02T02:02:48.468Z,19.10
2023-02-02T02:05:33.819Z,16.80
2023-02-02T02:08:13.890Z,16.30
2023-02-02T02:10:42.371Z,14.10
2023-02-02T02:13:11.264Z,14.50
2023-02-02T02:16:18.641Z,16.30
2023-02-02T02:19:14.853Z,17.20
2023-02-02T02:22:08.368Z,16.10
2023-02-02T02:25:25.936Z,16.60
2023-02-02T02:28:19.765Z,14.70
2023-02-02T02:30:57.473Z,15.90
2023-02-02T02:33:43.154Z,16.40
2023-02-02T02:36:20.468Z,15.80
2023-02-02T02:39:12.896Z,17.80
2023-02-02T02:41:46.938Z,15.90
2023-02-02T02:44:16.502Z,15.00
2023-02-02T02:46:45.010Z,16.20
2023-02-02T02:49:13.670Z,19.00
2023-02-02T02:51:49.233Z,20.20
2023-02-02T02:54:41.091Z,25.50
2023-02-02T02:57:25.328Z,21.70
2023-02-02T03:00:18.793Z,26.40
2023-02-02T03:03:00.039Z,21.40
2023-02-02T03:05:43.639Z,27.00
2023-02-02T03:08:14.104Z,28.20
2023-02-02T03:10:43.673Z,53.20
2023-02-02T03:13:12.776Z,32.30
2023-02-02T03:15:42.636Z,50.20
2023-02-02T03:18:14.579Z,42.80
2023-02-02T03:20:43.681Z,27.60
2023-02-02T03:23:12.578Z,27.30
2023-02-02T03:25:40.914Z,23.30
2023-02-02T03:28:09.731Z,24.90
2023-02-02T03:30:39.086Z,27.40
2023-02-02T03:33:07.621Z,30.50
2023-02-02T03:35:36.653Z,32.80
2023-02-02T03:38:05.604Z,25.40
2023-02-02T03:40:34.261Z,29.50
2023-02-02T03:43:03.387Z,30.40
2023-02-02T03:45:32.431Z,34.50
2023-02-02T03:48:01.066Z,26.90
2023-02-02T03:50:29.545Z,26.20
2023-02-02T03:52:58.129Z,26.90
2023-02-02T03:55:26.797Z,24.00
2023-02-02T03:57:55.313Z,26.30
2023-02-02T04:00:23.786Z,25.80
2023-02-02T04:02:52.184Z,27.90
2023-02-02T04:05:20.657Z,28.80
2023-02-02T04:07:49.592Z,24.10
2023-02-02T04:10:18.777Z,22.30
2023-02-02T04:12:47.620Z,25.90
2023-02-02T04:15:16.766Z,24.00
2023-02-02T04:17:45.299Z,25.80
2023-02-02T04:20:14.059Z,27.90
2023-02-02T04:22:42.583Z,20.40
2023-02-02T04:25:11.261Z,25.20
2023-02-02T04:27:40.041Z,19.30
2023-02-02T04:30:09.517Z,23.50
2023-02-02T04:32:38.031Z,25.50
2023-02-02T04:35:07.146Z,27.60
2023-02-02T04:37:35.519Z,23.50
2023-02-02T04:40:04.912Z,21.70
2023-02-02T04:42:34.718Z,315.90
2023-02-02T04:45:03.514Z,782.90
2023-02-02T04:47:31.990Z,307.20
2023-02-02T04:50:00.551Z,120.30
2023-02-02T04:52:29.573Z,158.80
2023-02-02T04:54:59.172Z,45.80
2023-02-02T04:57:27.766Z,72.50
2023-02-02T04:59:56.831Z,35.20
2023-02-02T05:02:25.437Z,25.30
2023-02-02T05:04:53.916Z,39.70
2023-02-02T05:07:22.399Z,35.60
2023-02-02T05:09:51.739Z,35.80
2023-02-02T05:14:53.189Z,40.50
2023-02-02T05:17:21.649Z,51.80
2023-02-02T05:19:50.216Z,32.20
2023-02-02T05:22:18.817Z,45.50
2023-02-02T05:24:47.605Z,61.80
2023-02-02T05:27:16.187Z,43.40
2023-02-02T05:29:44.675Z,46.40
2023-02-02T05:32:13.070Z,45.30
2023-02-02T05:34:43.186Z,29.10
2023-02-02T05:37:11.649Z,25.30
2023-02-02T05:39:40.858Z,23.50
2023-02-02T05:42:09.693Z,26.70
2023-02-02T05:44:39.798Z,52.60
2023-02-02T05:47:09.523Z,31.00
2023-02-02T05:49:37.817Z,30.80
2023-02-02T05:52:06.542Z,25.70
2023-02-02T05:54:35.322Z,35.40
2023-02-02T05:57:03.902Z,30.80
2023-02-02T05:59:34.741Z,21.10
2023-02-02T06:02:03.144Z,22.50
2023-02-02T06:04:31.600Z,20.30
2023-02-02T06:07:00.403Z,21.80
2023-02-02T06:09:29.175Z,22.10
2023-02-02T06:11:57.755Z,24.90
2023-02-02T06:14:26.653Z,30.40
2023-02-02T06:16:55.233Z,24.30
2023-02-02T06:19:23.860Z,29.50
2023-02-02T06:21:52.350Z,28.50
2023-02-02T06:24:21.400Z,26.50
2023-02-02T06:26:50.239Z,19.50
2023-02-02T06:29:18.895Z,21.90
2023-02-02T06:31:47.645Z,23.30
2023-02-02T06:34:16.337Z,21.70
2023-02-02T06:36:45.139Z,19.20
2023-02-02T06:39:13.716Z,22.00
2023-02-02T06:41:42.335Z,22.80
2023-02-02T06:44:11.090Z,20.10
2023-02-02T06:46:39.733Z,17.80
2023-02-02T06:49:08.732Z,18.50
2023-02-02T06:51:37.187Z,28.50
2023-02-02T06:54:05.742Z,19.60
2023-02-02T06:56:35.141Z,23.70
2023-02-02T06:59:03.740Z,21.80
2023-02-02T07:01:32.824Z,20.90
2023-02-02T07:04:01.542Z,21.10
2023-02-02T07:06:30.399Z,23.40
2023-02-02T07:09:02.918Z,25.10
2023-02-02T07:11:34.762Z,21.00
2023-02-02T07:14:07.379Z,20.60
2023-02-02T07:16:36.189Z,20.60
2023-02-02T07:19:04.808Z,29.00
2023-02-02T07:21:36.562Z,21.70
2023-02-02T07:24:06.043Z,20.70
2023-02-02T07:26:36.169Z,19.40
2023-02-02T07:29:04.794Z,21.60
2023-02-02T07:31:36.779Z,20.80
2023-02-02T07:34:05.838Z,21.00
2023-02-02T07:36:34.185Z,21.40
2023-02-02T07:39:05.094Z,21.00
2023-02-02T07:41:36.690Z,22.10
2023-02-02T07:44:05.591Z,18.20
2023-02-02T07:46:36.176Z,17.10
2023-02-02T07:49:06.540Z,17.60
2023-02-02T07:51:37.959Z,17.20
2023-02-02T07:54:07.388Z,18.40
2023-02-02T07:56:37.595Z,18.00
2023-02-02T07:59:06.497Z,13.40
2023-02-02T08:01:35.311Z,16.80
2023-02-02T08:04:04.698Z,17.30
2023-02-02T08:06:36.048Z,17.60
2023-02-02T08:09:07.809Z,21.50
2023-02-02T08:11:37.313Z,16.90
2023-02-02T08:14:06.406Z,21.20
2023-02-02T08:16:35.360Z,21.30
2023-02-02T08:19:04.078Z,21.80
2023-02-02T08:21:34.309Z,18.80
2023-02-02T08:24:05.299Z,22.90
2023-02-02T08:26:35.441Z,23.50
2023-02-02T08:29:06.335Z,19.10
2023-02-02T08:31:41.844Z,21.10
2023-02-02T08:34:11.306Z,20.80
2023-02-02T08:36:40.127Z,19.50
2023-02-02T08:41:40.892Z,18.70
2023-02-02T08:44:11.620Z,17.60
2023-02-02T08:46:41.141Z,20.70
2023-02-02T08:49:11.683Z,18.30
2023-02-02T08:51:41.199Z,20.70
2023-02-02T08:54:09.745Z,18.20
2023-02-02T08:56:38.961Z,16.00
2023-02-02T08:59:07.938Z,13.70
2023-02-02T09:01:36.949Z,16.90
2023-02-02T09:04:07.582Z,15.40
2023-02-02T09:06:40.652Z,18.50
2023-02-02T09:09:13.216Z,14.50
2023-02-02T09:11:42.703Z,14.80
2023-02-02T09:14:13.722Z,14.70
2023-02-02T09:16:42.606Z,15.40
2023-02-02T09:19:11.758Z,14.00
2023-02-02T09:21:40.726Z,15.00
2023-02-02T09:24:10.973Z,13.60
2023-02-02T09:26:40.626Z,14.70
2023-02-02T09:29:12.338Z,15.70
2023-02-02T09:34:11.418Z,16.10
2023-02-02T09:36:40.353Z,14.90
2023-02-02T09:39:10.169Z,13.00
2023-02-02T09:41:39.005Z,14.70
2023-02-02T09:44:28.921Z,13.50
2023-02-02T09:47:10.104Z,13.70
2023-02-02T09:49:57.777Z,14.60
2023-02-02T09:52:27.795Z,16.50
2023-02-02T09:55:23.495Z,15.70
2023-02-02T09:57:54.409Z,16.20
2023-02-02T10:00:34.035Z,14.70
2023-02-02T10:03:07.616Z,12.50
2023-02-02T10:06:18.528Z,16.70
2023-02-02T10:08:50.520Z,14.40
2023-02-02T10:11:18.897Z,14.10
2023-02-02T10:13:49.121Z,16.60
2023-02-02T10:16:18.215Z,12.80
2023-02-02T10:18:56.013Z,15.00
2023-02-02T10:21:44.341Z,14.10
2023-02-02T10:24:26.571Z,11.50
2023-02-02T10:27:04.560Z,12.90
2023-02-02T10:29:48.380Z,12.80
2023-02-02T10:32:26.183Z,13.50
2023-02-02T10:35:16.569Z,14.00
2023-02-02T10:37:57.135Z,13.70
2023-02-02T10:40:38.775Z,13.10
2023-02-02T10:43:44.719Z,14.40
2023-02-02T10:46:17.940Z,14.10
2023-02-02T10:48:47.441Z,13.80
2023-02-02T10:51:26.295Z,14.00
2023-02-02T10:53:59.071Z,20.70
2023-02-02T10:56:36.582Z,16.50
2023-02-02T10:59:07.482Z,14.90
2023-02-02T11:04:41.442Z,14.00
2023-02-02T11:07:11.106Z,14.40
2023-02-02T11:09:40.834Z,14.40
2023-02-02T11:12:31.513Z,15.00
2023-02-02T11:15:05.259Z,13.40
2023-02-02T11:17:35.510Z,11.50
2023-02-02T11:20:21.940Z,11.30
2023-02-02T11:22:50.522Z,13.10
2023-02-02T11:25:33.967Z,14.20
2023-02-02T11:28:11.805Z,13.70
2023-02-02T11:30:40.240Z,10.60
2023-02-02T11:33:28.614Z,12.30
2023-02-02T11:36:01.546Z,10.10
2023-02-02T11:38:31.060Z,11.40
2023-02-02T11:41:04.469Z,9.50
2023-02-02T11:43:41.691Z,9.90
2023-02-02T11:46:28.798Z,10.10
2023-02-02T11:49:12.964Z,10.80
2023-02-02T11:51:41.378Z,10.60
2023-02-02T11:54:22.557Z,11.00
2023-02-02T11:56:52.585Z,10.70
2023-02-02T12:00:06.960Z,11.40
2023-02-02T12:02:35.975Z,10.30
2023-02-02T12:05:11.058Z,11.20
2023-02-02T12:07:39.638Z,11.60
2023-02-02T12:12:56.382Z,11.90
2023-02-02T12:15:58.144Z,10.60
2023-02-02T12:18:41.372Z,11.60
2023-02-02T12:21:25.050Z,11.70
2023-02-02T12:23:55.353Z,13.00
2023-02-02T12:26:28.442Z,11.40
2023-02-02T12:29:00.682Z,10.30
2023-02-02T12:32:11.444Z,9.10
2023-02-02T12:34:55.078Z,10.30
2023-02-02T12:37:47.025Z,13.40
2023-02-02T12:40:25.047Z,13.20
2023-02-02T12:43:12.646Z,13.40
2023-02-02T12:45:41.295Z,16.00
2023-02-02T12:48:23.842Z,16.40
2023-02-02T12:51:30.274Z,17.00
2023-02-02T12:54:34.922Z,15.20
2023-02-02T12:57:42.745Z,14.50
2023-02-02T13:00:27.053Z,18.40
2023-02-02T13:03:05.824Z,14.50
2023-02-02T13:05:55.976Z,14.10
2023-02-02T13:08:41.902Z,15.10
2023-02-02T13:11:30.171Z,15.20
2023-02-02T13:14:11.959Z,14.10
2023-02-02T13:16:44.499Z,15.70
2023-02-02T13:19:35.544Z,16.60
2023-02-02T13:22:05.168Z,15.00
2023-02-02T13:24:36.440Z,14.60
2023-02-02T13:27:06.308Z,13.90
2023-02-02T13:29:47.716Z,13.20
2023-02-02T13:32:36.491Z,12.90
2023-02-02T13:35:18.447Z,15.00
2023-02-02T13:37:49.983Z,13.00
2023-02-02T13:40:44.797Z,17.60
2023-02-02T13:43:35.933Z,14.30
2023-02-02T13:46:25.439Z,15.30
2023-02-02T13:48:56.520Z,15.10
2023-02-02T13:52:16.097Z,15.40
2023-02-02T13:55:09.766Z,13.20
2023-02-02T13:57:54.408Z,14.80
2023-02-02T14:00:31.045Z,17.70
2023-02-02T14:03:03.424Z,14.10
2023-02-02T14:05:37.039Z,15.50
2023-02-02T14:08:12.010Z,18.90
2023-02-02T14:14:00.491Z,14.40
2023-02-02T14:16:32.011Z,19.70
2023-02-02T14:21:32.878Z,19.30
2023-02-02T14:26:50.149Z,18.70
2023-02-02T14:29:35.040Z,19.90
2023-02-02T14:32:07.160Z,18.50
2023-02-02T14:34:42.246Z,22.00
2023-02-02T14:37:22.929Z,50.50
2023-02-02T14:40:12.735Z,67.70
2023-02-02T14:43:24.973Z,70.60
2023-02-02T14:46:15.922Z,40.10
2023-02-02T14:48:47.616Z,28.10
2023-02-02T14:53:49.667Z,30.30
2023-02-02T14:56:18.220Z,35.70
2023-02-02T14:58:53.431Z,32.20
2023-02-02T15:01:27.747Z,30.50
2023-02-02T15:04:15.973Z,26.40
2023-02-02T15:06:44.347Z,28.30
2023-02-02T15:09:27.965Z,28.10
2023-02-02T15:12:02.137Z,32.50
2023-02-02T15:14:33.890Z,31.30
2023-02-02T15:17:41.596Z,34.60
2023-02-02T15:20:21.198Z,31.30
2023-02-02T15:22:56.398Z,22.30
2023-02-02T15:26:03.641Z,24.70
2023-02-02T15:28:44.861Z,20.60
2023-02-02T15:31:28.691Z,20.90
2023-02-02T15:33:59.712Z,17.60
2023-02-02T15:36:31.321Z,16.20
2023-02-02T15:39:08.786Z,16.70
2023-02-02T15:41:38.271Z,16.30
2023-02-02T15:44:26.830Z,14.40
2023-02-02T15:46:56.754Z,13.80
2023-02-02T15:49:34.918Z,14.30
2023-02-02T15:52:11.867Z,15.70
2023-02-02T15:54:53.423Z,13.10
2023-02-02T15:57:37.993Z,12.10
2023-02-02T16:00:26.754Z,12.50
2023-02-02T16:03:01.196Z,12.20
2023-02-02T16:05:29.841Z,14.00
2023-02-02T16:08:06.075Z,15.30
2023-02-02T16:10:34.921Z,14.20
2023-02-02T16:13:03.858Z,15.30
2023-02-02T16:15:33.493Z,19.70
2023-02-02T16:18:11.947Z,17.40
2023-02-02T16:20:40.357Z,20.20
2023-02-02T16:23:14.009Z,20.90
2023-02-02T16:25:47.668Z,18.80
2023-02-02T16:28:17.986Z,18.00
2023-02-02T16:30:47.035Z,15.80
2023-02-02T16:33:35.929Z,15.80
2023-02-02T16:36:26.689Z,16.50
2023-02-02T16:38:58.169Z,17.50
2023-02-02T16:41:37.212Z,18.40
2023-02-02T16:44:40.119Z,20.20
2023-02-02T16:47:16.867Z,19.50
2023-02-02T16:49:45.335Z,19.50
2023-02-02T16:52:16.274Z,18.10
2023-02-02T16:55:11.189Z,19.70
2023-02-02T16:57:39.843Z,16.40
2023-02-02T17:00:18.440Z,20.10
2023-02-02T17:02:48.675Z,19.90
2023-02-02T17:05:29.454Z,18.00
2023-02-02T17:08:00.838Z,18.40
2023-02-02T17:10:42.576Z,20.70
2023-02-02T17:13:35.050Z,16.80
2023-02-02T17:16:13.337Z,15.70
2023-02-02T17:18:42.138Z,15.90
2023-02-02T17:21:14.418Z,16.50
2023-02-02T17:23:43.271Z,16.20
2023-02-02T17:26:12.479Z,18.20
2023-02-02T17:28:41.541Z,16.90
2023-02-02T17:31:12.398Z,23.10
2023-02-02T17:33:41.257Z,17.60
2023-02-02T17:36:10.886Z,19.60
2023-02-02T17:38:39.899Z,18.00
2023-02-02T17:41:10.432Z,21.60
2023-02-02T17:43:43.053Z,21.70
2023-02-02T17:46:14.378Z,28.50
2023-02-02T17:48:44.535Z,29.70
2023-02-02T17:51:15.330Z,31.90
2023-02-02T17:53:44.738Z,31.40
2023-02-02T17:56:13.396Z,44.00
2023-02-02T17:58:42.284Z,41.90
2023-02-02T18:01:11.864Z,28.90
2023-02-02T18:03:41.316Z,25.80
2023-02-02T18:06:10.525Z,26.20
2023-02-02T18:08:39.465Z,28.10
2023-02-02T18:11:13.173Z,25.70
2023-02-02T18:13:43.170Z,22.80
2023-02-02T18:16:12.328Z,23.00
2023-02-02T18:18:40.974Z,23.70
2023-02-02T18:21:10.479Z,25.50
2023-02-02T18:23:38.810Z,23.10
2023-02-02T18:26:14.534Z,32.90
2023-02-02T18:28:43.047Z,30.50
2023-02-02T18:31:12.773Z,28.50
2023-02-02T18:33:41.991Z,28.50
2023-02-02T18:36:20.061Z,31.00
2023-02-02T18:38:51.244Z,26.70
2023-02-02T18:41:21.818Z,27.30
2023-02-02T18:43:53.370Z,26.50
2023-02-02T18:48:50.767Z,25.40
2023-02-02T18:51:22.218Z,25.60
2023-02-02T18:53:50.850Z,27.10
2023-02-02T18:56:19.551Z,21.70
2023-02-02T18:58:48.409Z,24.80
2023-02-02T19:01:18.493Z,26.60
2023-02-02T19:03:48.486Z,24.50
2023-02-02T19:06:36.502Z,23.30
2023-02-02T19:09:06.193Z,24.90
2023-02-02T19:11:39.431Z,21.70
2023-02-02T19:14:20.046Z,29.80
2023-02-02T19:16:48.650Z,23.20
2023-02-02T19:19:20.629Z,24.10
2023-02-02T19:21:49.340Z,27.00
2023-02-02T19:24:17.780Z,27.20
2023-02-02T19:26:47.484Z,28.00
2023-02-02T19:29:23.697Z,26.90
2023-02-02T19:31:54.186Z,25.60
2023-02-02T19:34:23.309Z,22.60
2023-02-02T19:36:52.457Z,26.60
2023-02-02T19:39:34.119Z,27.20
2023-02-02T19:42:02.690Z,27.10
2023-02-02T19:44:34.391Z,27.70
2023-02-02T19:47:24.516Z,26.00
2023-02-02T19:49:53.580Z,25.60
2023-02-02T19:52:24.776Z,24.40
2023-02-02T19:54:53.518Z,29.20
2023-02-02T19:57:37.007Z,27.80
2023-02-02T20:00:27.472Z,24.80
2023-02-02T20:03:23.107Z,24.30
2023-02-02T20:05:52.276Z,27.70
2023-02-02T20:08:31.962Z,26.50
2023-02-02T20:11:01.436Z,25.50
2023-02-02T20:13:35.838Z,26.90
2023-02-02T20:16:05.314Z,23.20
2023-02-02T20:18:42.982Z,29.20
2023-02-02T20:21:38.166Z,23.50
2023-02-02T20:24:37.464Z,27.40
2023-02-02T20:27:18.653Z,29.60
2023-02-02T20:29:48.748Z,25.80
2023-02-02T20:32:44.247Z,26.00
2023-02-02T20:35:23.536Z,23.20
2023-02-02T20:37:52.378Z,21.90
2023-02-02T20:40:20.963Z,22.00
2023-02-02T20:42:49.928Z,24.10
2023-02-02T20:45:21.930Z,27.10
2023-02-02T20:47:51.019Z,25.30
2023-02-02T20:50:20.939Z,24.80
2023-02-02T20:52:51.277Z,25.20
2023-02-02T20:55:19.927Z,23.00
2023-02-02T20:57:52.607Z,25.80
2023-02-02T21:00:27.540Z,28.40
2023-02-02T21:02:57.257Z,25.70
2023-02-02T21:05:26.299Z,23.60
2023-02-02T21:07:56.938Z,25.90
2023-02-02T21:10:26.446Z,21.70
2023-02-02T21:12:56.078Z,27.40
2023-02-02T21:15:26.623Z,31.70
2023-02-02T21:17:56.088Z,28.10
2023-02-02T21:20:25.428Z,28.00
2023-02-02T21:22:56.364Z,30.10
2023-02-02T21:25:25.275Z,24.80
2023-02-02T21:28:00.426Z,21.70
2023-02-02T21:30:29.568Z,23.20
2023-02-02T21:32:58.738Z,22.30
2023-02-02T21:35:27.269Z,25.10
2023-02-02T21:37:57.993Z,21.50
2023-02-02T21:40:30.400Z,21.70
2023-02-02T21:42:59.999Z,26.40
2023-02-02T21:45:36.874Z,25.40
2023-02-02T21:48:35.411Z,25.50
2023-02-02T21:51:27.689Z,23.90
2023-02-02T21:53:56.274Z,24.00
2023-02-02T21:56:34.178Z,24.70
2023-02-02T21:59:17.468Z,22.40
2023-02-02T22:01:54.589Z,24.70
2023-02-02T22:04:28.561Z,26.20
2023-02-02T22:07:01.660Z,25.00
2023-02-02T22:09:38.450Z,26.50
2023-02-02T22:12:21.048Z,22.40
2023-02-02T22:14:51.167Z,28.70
2023-02-02T22:17:49.521Z,28.60
2023-02-02T22:20:33.250Z,23.10
2023-02-02T22:23:02.585Z,23.10
2023-02-02T22:25:36.303Z,26.80
2023-02-02T22:28:23.041Z,22.20
2023-02-02T22:30:52.704Z,25.00
2023-02-02T22:33:21.818Z,21.20
2023-02-02T22:35:50.256Z,22.80
2023-02-02T22:38:20.580Z,24.20
2023-02-02T22:40:50.129Z,23.50
2023-02-02T22:43:19.338Z,18.80
2023-02-02T22:45:47.871Z,27.00
2023-02-02T22:48:17.109Z,21.20
2023-02-02T22:50:46.060Z,19.70
2023-02-02T22:53:15.684Z,18.60
2023-02-02T22:55:44.502Z,23.50
2023-02-02T22:58:13.068Z,20.50
2023-02-02T23:00:41.930Z,19.50
2023-02-02T23:03:11.039Z,20.00
2023-02-02T23:05:39.919Z,21.80
2023-02-02T23:08:08.262Z,20.80
2023-02-02T23:10:56.501Z,19.90
2023-02-02T23:13:24.967Z,15.20
2023-02-02T23:15:53.547Z,15.60
2023-02-02T23:18:22.400Z,17.60
2023-02-02T23:20:50.802Z,15.70
2023-02-02T23:23:19.258Z,13.80
2023-02-02T23:25:47.911Z,15.80
2023-02-02T23:28:16.551Z,16.50
2023-02-02T23:30:45.083Z,14.70
2023-02-02T23:33:13.491Z,15.70
2023-02-02T23:35:42.181Z,17.60
2023-02-02T23:38:10.974Z,16.10
2023-02-02T23:40:39.365Z,17.30
2023-02-02T23:43:07.729Z,14.80
2023-02-02T23:45:36.728Z,16.50
2023-02-02T23:48:06.249Z,18.00
2023-02-02T23:50:37.842Z,15.70
2023-02-02T23:53:06.967Z,17.00
2023-02-02T23:55:37.300Z,18.20
2023-02-02T23:58:06.293Z,16.90
